Terminal Aerodrome Forecast
Issued by NWS

Home | Current Version | Previous Version | Text Only | Print | Product List | Glossary On
Versions: 1 2 3 4 5 6 7 8 9 10 11 12 13 14 15 16
000
FTUS43 KMQT 241735
TAFCMX
TAF
KCMX 241735Z 2418/2518 29007KT P6SM VCSH BKN008
      TEMPO 2418/2420 P6SM OVC004
     FM250000 27005KT P6SM VCSH BKN010
     FM250300 28003KT 5SM BR BKN020
     FM251100 29005KT P6SM BKN015
     FM251600 33006KT P6SM BKN030=

USA.gov is the U.S. government's official web portal to all federal, state and local government web resources and services.